sensor_id;sensor_type;location;lat;lon;timestamp;P1;durP1;ratioP1;P2;durP2;ratioP2
16127;SDS011;8168;49.036;7.690;2022-08-20T00:00:51;1.50;;;1.40;;
16127;SDS011;8168;49.036;7.690;2022-08-20T00:03:30;1.70;;;1.60;;
16127;SDS011;8168;49.036;7.690;2022-08-20T00:06:10;1.73;;;1.63;;
16127;SDS011;8168;49.036;7.690;2022-08-20T00:08:44;2.80;;;1.83;;
16127;SDS011;8168;49.036;7.690;2022-08-20T00:11:17;4.30;;;2.53;;
16127;SDS011;8168;49.036;7.690;2022-08-20T00:13:53;1.93;;;1.83;;
16127;SDS011;8168;49.036;7.690;2022-08-20T00:16:28;1.70;;;1.60;;
16127;SDS011;8168;49.036;7.690;2022-08-20T00:19:04;1.70;;;1.60;;
16127;SDS011;8168;49.036;7.690;2022-08-20T00:21:36;1.70;;;1.60;;
16127;SDS011;8168;49.036;7.690;2022-08-20T00:24:07;2.20;;;2.00;;
16127;SDS011;8168;49.036;7.690;2022-08-20T00:26:37;1.83;;;1.70;;
16127;SDS011;8168;49.036;7.690;2022-08-20T00:29:08;2.60;;;2.00;;
16127;SDS011;8168;49.036;7.690;2022-08-20T00:31:38;1.87;;;1.70;;
16127;SDS011;8168;49.036;7.690;2022-08-20T00:34:09;2.50;;;1.90;;
16127;SDS011;8168;49.036;7.690;2022-08-20T00:36:40;3.20;;;2.13;;
16127;SDS011;8168;49.036;7.690;2022-08-20T00:39:10;1.90;;;1.80;;
16127;SDS011;8168;49.036;7.690;2022-08-20T00:41:41;2.17;;;1.97;;
16127;SDS011;8168;49.036;7.690;2022-08-20T00:44:15;3.30;;;1.90;;
16127;SDS011;8168;49.036;7.690;2022-08-20T00:46:48;2.20;;;2.00;;
16127;SDS011;8168;49.036;7.690;2022-08-20T00:49:30;2.37;;;2.17;;
16127;SDS011;8168;49.036;7.690;2022-08-20T00:52:06;2.17;;;2.00;;
16127;SDS011;8168;49.036;7.690;2022-08-20T00:54:46;2.37;;;1.87;;
16127;SDS011;8168;49.036;7.690;2022-08-20T00:57:24;3.37;;;2.27;;
16127;SDS011;8168;49.036;7.690;2022-08-20T01:00:00;2.63;;;1.90;;
16127;SDS011;8168;49.036;7.690;2022-08-20T01:02:35;2.23;;;2.03;;
16127;SDS011;8168;49.036;7.690;2022-08-20T01:05:07;2.37;;;1.93;;
16127;SDS011;8168;49.036;7.690;2022-08-20T01:07:38;2.53;;;2.27;;
16127;SDS011;8168;49.036;7.690;2022-08-20T01:10:10;2.30;;;2.10;;
16127;SDS011;8168;49.036;7.690;2022-08-20T01:12:45;2.20;;;2.00;;
16127;SDS011;8168;49.036;7.690;2022-08-20T01:15:17;2.20;;;2.00;;
16127;SDS011;8168;49.036;7.690;2022-08-20T01:17:52;2.40;;;2.20;;
16127;SDS011;8168;49.036;7.690;2022-08-20T01:20:29;7.17;;;2.50;;
16127;SDS011;8168;49.036;7.690;2022-08-20T01:26:22;2.73;;;2.03;;
16127;SDS011;8168;49.036;7.690;2022-08-20T01:28:55;2.80;;;1.80;;
16127;SDS011;8168;49.036;7.690;2022-08-20T01:31:33;2.17;;;2.00;;
16127;SDS011;8168;49.036;7.690;2022-08-20T01:34:07;2.83;;;1.97;;
16127;SDS011;8168;49.036;7.690;2022-08-20T01:39:21;2.13;;;1.93;;
16127;SDS011;8168;49.036;7.690;2022-08-20T01:44:43;2.30;;;2.10;;
16127;SDS011;8168;49.036;7.690;2022-08-20T01:47:19;2.73;;;1.90;;
16127;SDS011;8168;49.036;7.690;2022-08-20T01:49:53;3.20;;;2.23;;
16127;SDS011;8168;49.036;7.690;2022-08-20T01:55:23;3.97;;;2.40;;
16127;SDS011;8168;49.036;7.690;2022-08-20T01:57:56;2.60;;;2.40;;
16127;SDS011;8168;49.036;7.690;2022-08-20T02:00:28;2.53;;;2.33;;
16127;SDS011;8168;49.036;7.690;2022-08-20T02:03:01;2.77;;;2.40;;
16127;SDS011;8168;49.036;7.690;2022-08-20T02:05:32;3.20;;;2.30;;
16127;SDS011;8168;49.036;7.690;2022-08-20T02:08:03;3.40;;;2.60;;
16127;SDS011;8168;49.036;7.690;2022-08-20T02:10:35;2.57;;;2.37;;
16127;SDS011;8168;49.036;7.690;2022-08-20T02:13:05;2.30;;;2.10;;
16127;SDS011;8168;49.036;7.690;2022-08-20T02:15:39;3.00;;;2.60;;
16127;SDS011;8168;49.036;7.690;2022-08-20T02:18:11;4.30;;;2.40;;
16127;SDS011;8168;49.036;7.690;2022-08-20T02:20:44;2.63;;;2.43;;
16127;SDS011;8168;49.036;7.690;2022-08-20T02:23:17;6.33;;;2.60;;
16127;SDS011;8168;49.036;7.690;2022-08-20T02:25:48;2.80;;;2.50;;
16127;SDS011;8168;49.036;7.690;2022-08-20T02:28:20;2.80;;;2.17;;
16127;SDS011;8168;49.036;7.690;2022-08-20T02:30:51;2.97;;;2.30;;
16127;SDS011;8168;49.036;7.690;2022-08-20T02:33:24;2.97;;;2.10;;
16127;SDS011;8168;49.036;7.690;2022-08-20T02:35:55;3.60;;;2.43;;
16127;SDS011;8168;49.036;7.690;2022-08-20T02:38:25;4.17;;;2.27;;
16127;SDS011;8168;49.036;7.690;2022-08-20T02:40:56;3.27;;;2.10;;
16127;SDS011;8168;49.036;7.690;2022-08-20T02:43:27;3.97;;;2.20;;
16127;SDS011;8168;49.036;7.690;2022-08-20T02:45:58;2.80;;;2.30;;
16127;SDS011;8168;49.036;7.690;2022-08-20T02:48:29;3.03;;;2.30;;
16127;SDS011;8168;49.036;7.690;2022-08-20T02:51:02;2.43;;;2.23;;
16127;SDS011;8168;49.036;7.690;2022-08-20T02:53:36;2.47;;;2.27;;
16127;SDS011;8168;49.036;7.690;2022-08-20T02:56:09;3.73;;;2.30;;
16127;SDS011;8168;49.036;7.690;2022-08-20T02:58:40;3.30;;;2.50;;
16127;SDS011;8168;49.036;7.690;2022-08-20T03:01:13;2.70;;;2.50;;
16127;SDS011;8168;49.036;7.690;2022-08-20T03:03:45;2.80;;;2.60;;
16127;SDS011;8168;49.036;7.690;2022-08-20T03:06:16;3.63;;;2.60;;
16127;SDS011;8168;49.036;7.690;2022-08-20T03:08:46;3.00;;;2.70;;
16127;SDS011;8168;49.036;7.690;2022-08-20T03:11:17;2.40;;;2.20;;
16127;SDS011;8168;49.036;7.690;2022-08-20T03:13:49;3.50;;;2.50;;
16127;SDS011;8168;49.036;7.690;2022-08-20T03:16:21;3.40;;;2.57;;
16127;SDS011;8168;49.036;7.690;2022-08-20T03:18:51;3.20;;;2.60;;
16127;SDS011;8168;49.036;7.690;2022-08-20T03:21:22;2.43;;;2.23;;
16127;SDS011;8168;49.036;7.690;2022-08-20T03:23:52;4.50;;;2.60;;
16127;SDS011;8168;49.036;7.690;2022-08-20T03:26:23;3.87;;;2.40;;
16127;SDS011;8168;49.036;7.690;2022-08-20T03:28:54;3.87;;;2.70;;
16127;SDS011;8168;49.036;7.690;2022-08-20T03:31:24;2.73;;;2.50;;
16127;SDS011;8168;49.036;7.690;2022-08-20T03:33:55;3.00;;;2.70;;
16127;SDS011;8168;49.036;7.690;2022-08-20T03:36:26;2.67;;;2.47;;
16127;SDS011;8168;49.036;7.690;2022-08-20T03:38:58;3.10;;;2.80;;
16127;SDS011;8168;49.036;7.690;2022-08-20T03:41:31;7.07;;;2.97;;
16127;SDS011;8168;49.036;7.690;2022-08-20T03:44:01;3.00;;;2.70;;
16127;SDS011;8168;49.036;7.690;2022-08-20T03:46:33;2.80;;;2.50;;
16127;SDS011;8168;49.036;7.690;2022-08-20T03:49:04;3.10;;;2.83;;
16127;SDS011;8168;49.036;7.690;2022-08-20T03:51:35;4.00;;;2.73;;
16127;SDS011;8168;49.036;7.690;2022-08-20T03:54:05;3.17;;;2.30;;
16127;SDS011;8168;49.036;7.690;2022-08-20T03:56:36;2.87;;;2.67;;
16127;SDS011;8168;49.036;7.690;2022-08-20T03:59:07;3.23;;;2.90;;
16127;SDS011;8168;49.036;7.690;2022-08-20T04:01:37;3.30;;;3.00;;
16127;SDS011;8168;49.036;7.690;2022-08-20T04:04:08;2.73;;;2.53;;
16127;SDS011;8168;49.036;7.690;2022-08-20T04:06:39;3.37;;;3.00;;
16127;SDS011;8168;49.036;7.690;2022-08-20T04:09:11;3.30;;;2.77;;
16127;SDS011;8168;49.036;7.690;2022-08-20T04:11:42;4.40;;;2.60;;
16127;SDS011;8168;49.036;7.690;2022-08-20T04:14:13;2.57;;;2.30;;
16127;SDS011;8168;49.036;7.690;2022-08-20T04:16:43;3.20;;;2.90;;
16127;SDS011;8168;49.036;7.690;2022-08-20T04:19:15;4.00;;;2.77;;
16127;SDS011;8168;49.036;7.690;2022-08-20T04:21:45;2.73;;;2.20;;
16127;SDS011;8168;49.036;7.690;2022-08-20T04:24:17;3.10;;;2.80;;
16127;SDS011;8168;49.036;7.690;2022-08-20T04:26:47;3.23;;;2.93;;
16127;SDS011;8168;49.036;7.690;2022-08-20T04:29:18;3.13;;;2.60;;
16127;SDS011;8168;49.036;7.690;2022-08-20T04:31:50;3.57;;;3.07;;
16127;SDS011;8168;49.036;7.690;2022-08-20T04:34:21;3.67;;;3.00;;
16127;SDS011;8168;49.036;7.690;2022-08-20T04:36:52;3.27;;;2.97;;
16127;SDS011;8168;49.036;7.690;2022-08-20T04:39:22;2.73;;;2.53;;
16127;SDS011;8168;49.036;7.690;2022-08-20T04:41:53;3.70;;;2.97;;
16127;SDS011;8168;49.036;7.690;2022-08-20T04:44:24;3.23;;;2.90;;
16127;SDS011;8168;49.036;7.690;2022-08-20T04:46:54;2.97;;;2.67;;
16127;SDS011;8168;49.036;7.690;2022-08-20T04:49:25;3.60;;;3.30;;
16127;SDS011;8168;49.036;7.690;2022-08-20T04:51:56;3.40;;;3.03;;
16127;SDS011;8168;49.036;7.690;2022-08-20T04:54:27;4.03;;;3.37;;
16127;SDS011;8168;49.036;7.690;2022-08-20T04:56:58;4.00;;;3.60;;
16127;SDS011;8168;49.036;7.690;2022-08-20T04:59:30;5.90;;;3.20;;
16127;SDS011;8168;49.036;7.690;2022-08-20T05:02:01;2.83;;;2.63;;
16127;SDS011;8168;49.036;7.690;2022-08-20T05:04:31;3.23;;;2.93;;
16127;SDS011;8168;49.036;7.690;2022-08-20T05:07:02;4.83;;;3.20;;
16127;SDS011;8168;49.036;7.690;2022-08-20T05:09:33;3.10;;;2.90;;
16127;SDS011;8168;49.036;7.690;2022-08-20T05:12:03;7.07;;;2.97;;
16127;SDS011;8168;49.036;7.690;2022-08-20T05:14:34;3.70;;;2.90;;
16127;SDS011;8168;49.036;7.690;2022-08-20T05:17:05;3.60;;;2.30;;
16127;SDS011;8168;49.036;7.690;2022-08-20T05:19:36;4.63;;;2.80;;
16127;SDS011;8168;49.036;7.690;2022-08-20T05:22:07;3.20;;;2.90;;
16127;SDS011;8168;49.036;7.690;2022-08-20T05:24:37;4.03;;;2.67;;
16127;SDS011;8168;49.036;7.690;2022-08-20T05:27:08;2.60;;;2.40;;
16127;SDS011;8168;49.036;7.690;2022-08-20T05:29:39;3.23;;;2.67;;
16127;SDS011;8168;49.036;7.690;2022-08-20T05:32:10;3.00;;;2.63;;
16127;SDS011;8168;49.036;7.690;2022-08-20T05:34:41;3.83;;;2.77;;
16127;SDS011;8168;49.036;7.690;2022-08-20T05:37:12;2.43;;;2.10;;
16127;SDS011;8168;49.036;7.690;2022-08-20T05:39:44;3.40;;;2.70;;
16127;SDS011;8168;49.036;7.690;2022-08-20T05:42:14;3.23;;;2.57;;
16127;SDS011;8168;49.036;7.690;2022-08-20T05:44:46;3.43;;;2.63;;
16127;SDS011;8168;49.036;7.690;2022-08-20T05:47:17;4.23;;;2.40;;
16127;SDS011;8168;49.036;7.690;2022-08-20T05:49:47;3.10;;;2.43;;
16127;SDS011;8168;49.036;7.690;2022-08-20T05:52:18;2.60;;;2.20;;
16127;SDS011;8168;49.036;7.690;2022-08-20T05:54:48;2.23;;;2.00;;
16127;SDS011;8168;49.036;7.690;2022-08-20T05:57:19;2.33;;;2.13;;
16127;SDS011;8168;49.036;7.690;2022-08-20T05:59:50;2.30;;;2.10;;
16127;SDS011;8168;49.036;7.690;2022-08-20T06:02:21;2.50;;;2.20;;
16127;SDS011;8168;49.036;7.690;2022-08-20T06:05:11;2.60;;;2.23;;
16127;SDS011;8168;49.036;7.690;2022-08-20T06:07:41;2.53;;;1.93;;
16127;SDS011;8168;49.036;7.690;2022-08-20T06:10:12;2.33;;;1.80;;
16127;SDS011;8168;49.036;7.690;2022-08-20T06:12:43;2.40;;;1.90;;
16127;SDS011;8168;49.036;7.690;2022-08-20T06:15:14;2.53;;;1.90;;
16127;SDS011;8168;49.036;7.690;2022-08-20T06:17:45;2.23;;;2.00;;
16127;SDS011;8168;49.036;7.690;2022-08-20T06:20:15;2.03;;;1.77;;
16127;SDS011;8168;49.036;7.690;2022-08-20T06:22:46;1.73;;;1.60;;
16127;SDS011;8168;49.036;7.690;2022-08-20T06:25:16;2.07;;;1.87;;
16127;SDS011;8168;49.036;7.690;2022-08-20T06:27:47;3.37;;;1.73;;
16127;SDS011;8168;49.036;7.690;2022-08-20T06:30:18;2.23;;;2.03;;
16127;SDS011;8168;49.036;7.690;2022-08-20T06:32:48;2.10;;;1.90;;
16127;SDS011;8168;49.036;7.690;2022-08-20T06:35:19;3.03;;;1.80;;
16127;SDS011;8168;49.036;7.690;2022-08-20T06:37:50;2.10;;;1.77;;
16127;SDS011;8168;49.036;7.690;2022-08-20T06:40:23;2.10;;;1.90;;
16127;SDS011;8168;49.036;7.690;2022-08-20T06:42:55;2.53;;;1.97;;
16127;SDS011;8168;49.036;7.690;2022-08-20T06:45:28;1.80;;;1.70;;
16127;SDS011;8168;49.036;7.690;2022-08-20T06:48:05;2.10;;;1.90;;
16127;SDS011;8168;49.036;7.690;2022-08-20T06:50:39;1.97;;;1.70;;
16127;SDS011;8168;49.036;7.690;2022-08-20T06:53:12;2.00;;;1.70;;
16127;SDS011;8168;49.036;7.690;2022-08-20T06:55:46;1.90;;;1.70;;
16127;SDS011;8168;49.036;7.690;2022-08-20T06:58:20;2.30;;;2.10;;
16127;SDS011;8168;49.036;7.690;2022-08-20T07:00:51;1.97;;;1.87;;
16127;SDS011;8168;49.036;7.690;2022-08-20T07:03:21;2.63;;;2.20;;
16127;SDS011;8168;49.036;7.690;2022-08-20T07:05:52;2.40;;;2.20;;
16127;SDS011;8168;49.036;7.690;2022-08-20T07:08:22;2.73;;;2.50;;
16127;SDS011;8168;49.036;7.690;2022-08-20T07:10:53;2.70;;;2.20;;
16127;SDS011;8168;49.036;7.690;2022-08-20T07:13:24;3.20;;;2.90;;
16127;SDS011;8168;49.036;7.690;2022-08-20T07:15:54;2.60;;;2.40;;
16127;SDS011;8168;49.036;7.690;2022-08-20T07:18:25;3.40;;;3.13;;
16127;SDS011;8168;49.036;7.690;2022-08-20T07:20:56;3.90;;;3.50;;
16127;SDS011;8168;49.036;7.690;2022-08-20T07:23:27;3.37;;;3.10;;
16127;SDS011;8168;49.036;7.690;2022-08-20T07:26:00;3.37;;;3.07;;
16127;SDS011;8168;49.036;7.690;2022-08-20T07:28:32;3.43;;;3.13;;
16127;SDS011;8168;49.036;7.690;2022-08-20T07:31:03;3.07;;;2.87;;
16127;SDS011;8168;49.036;7.690;2022-08-20T07:33:52;3.03;;;2.83;;
16127;SDS011;8168;49.036;7.690;2022-08-20T07:36:23;3.30;;;3.00;;
16127;SDS011;8168;49.036;7.690;2022-08-20T07:38:54;3.57;;;3.17;;
16127;SDS011;8168;49.036;7.690;2022-08-20T07:41:24;2.90;;;2.70;;
16127;SDS011;8168;49.036;7.690;2022-08-20T07:43:55;3.07;;;2.83;;
16127;SDS011;8168;49.036;7.690;2022-08-20T07:46:25;4.00;;;2.87;;
16127;SDS011;8168;49.036;7.690;2022-08-20T07:48:56;3.63;;;3.30;;
16127;SDS011;8168;49.036;7.690;2022-08-20T07:51:27;3.27;;;3.00;;
16127;SDS011;8168;49.036;7.690;2022-08-20T07:53:58;3.50;;;3.20;;
16127;SDS011;8168;49.036;7.690;2022-08-20T07:56:29;2.90;;;2.60;;
16127;SDS011;8168;49.036;7.690;2022-08-20T07:58:59;2.70;;;2.50;;
16127;SDS011;8168;49.036;7.690;2022-08-20T08:01:31;3.23;;;2.93;;
16127;SDS011;8168;49.036;7.690;2022-08-20T08:04:01;2.80;;;2.60;;
16127;SDS011;8168;49.036;7.690;2022-08-20T08:06:33;2.90;;;2.67;;
16127;SDS011;8168;49.036;7.690;2022-08-20T08:09:04;2.53;;;2.33;;
16127;SDS011;8168;49.036;7.690;2022-08-20T08:11:41;2.50;;;2.30;;
16127;SDS011;8168;49.036;7.690;2022-08-20T08:14:19;2.60;;;2.40;;
16127;SDS011;8168;49.036;7.690;2022-08-20T08:16:54;2.20;;;2.00;;
16127;SDS011;8168;49.036;7.690;2022-08-20T08:19:29;3.93;;;1.90;;
16127;SDS011;8168;49.036;7.690;2022-08-20T08:22:05;1.43;;;1.33;;
16127;SDS011;8168;49.036;7.690;2022-08-20T08:24:41;1.50;;;1.40;;
16127;SDS011;8168;49.036;7.690;2022-08-20T08:27:14;1.50;;;1.40;;
16127;SDS011;8168;49.036;7.690;2022-08-20T08:29:48;1.37;;;1.27;;
16127;SDS011;8168;49.036;7.690;2022-08-20T08:32:18;1.50;;;1.40;;
16127;SDS011;8168;49.036;7.690;2022-08-20T08:34:49;1.40;;;1.27;;
16127;SDS011;8168;49.036;7.690;2022-08-20T08:37:19;1.73;;;1.43;;
16127;SDS011;8168;49.036;7.690;2022-08-20T08:39:50;1.50;;;1.40;;
16127;SDS011;8168;49.036;7.690;2022-08-20T08:42:34;1.67;;;1.50;;
16127;SDS011;8168;49.036;7.690;2022-08-20T08:45:13;1.57;;;1.47;;
16127;SDS011;8168;49.036;7.690;2022-08-20T08:47:47;1.87;;;1.77;;
16127;SDS011;8168;49.036;7.690;2022-08-20T08:50:23;3.70;;;1.63;;
16127;SDS011;8168;49.036;7.690;2022-08-20T08:52:56;2.17;;;1.70;;
16127;SDS011;8168;49.036;7.690;2022-08-20T08:55:29;2.17;;;1.53;;
16127;SDS011;8168;49.036;7.690;2022-08-20T08:58:01;2.07;;;1.50;;
16127;SDS011;8168;49.036;7.690;2022-08-20T09:00:32;1.57;;;1.47;;
16127;SDS011;8168;49.036;7.690;2022-08-20T09:03:07;1.30;;;1.20;;
16127;SDS011;8168;49.036;7.690;2022-08-20T09:05:53;1.87;;;1.40;;
16127;SDS011;8168;49.036;7.690;2022-08-20T09:08:35;1.97;;;1.80;;
16127;SDS011;8168;49.036;7.690;2022-08-20T09:11:12;2.00;;;1.87;;
16127;SDS011;8168;49.036;7.690;2022-08-20T09:13:43;2.13;;;1.30;;
16127;SDS011;8168;49.036;7.690;2022-08-20T09:16:14;1.93;;;1.63;;
16127;SDS011;8168;49.036;7.690;2022-08-20T09:18:45;1.83;;;1.53;;
16127;SDS011;8168;49.036;7.690;2022-08-20T09:21:16;3.30;;;1.40;;
16127;SDS011;8168;49.036;7.690;2022-08-20T09:23:47;1.37;;;1.27;;
16127;SDS011;8168;49.036;7.690;2022-08-20T09:26:18;1.10;;;1.10;;
16127;SDS011;8168;49.036;7.690;2022-08-20T09:28:48;1.20;;;1.10;;
16127;SDS011;8168;49.036;7.690;2022-08-20T09:31:19;1.10;;;1.10;;
16127;SDS011;8168;49.036;7.690;2022-08-20T09:33:50;1.17;;;0.97;;
16127;SDS011;8168;49.036;7.690;2022-08-20T09:36:21;0.90;;;0.90;;
16127;SDS011;8168;49.036;7.690;2022-08-20T09:38:52;1.00;;;1.00;;
16127;SDS011;8168;49.036;7.690;2022-08-20T09:41:23;0.90;;;0.90;;
16127;SDS011;8168;49.036;7.690;2022-08-20T09:43:54;1.07;;;0.80;;
16127;SDS011;8168;49.036;7.690;2022-08-20T09:46:24;2.20;;;1.00;;
16127;SDS011;8168;49.036;7.690;2022-08-20T09:48:55;1.13;;;0.80;;
16127;SDS011;8168;49.036;7.690;2022-08-20T09:51:26;1.77;;;1.00;;
16127;SDS011;8168;49.036;7.690;2022-08-20T09:53:57;0.80;;;0.80;;
16127;SDS011;8168;49.036;7.690;2022-08-20T09:56:28;0.80;;;0.80;;
16127;SDS011;8168;49.036;7.690;2022-08-20T09:59:04;2.20;;;0.90;;
16127;SDS011;8168;49.036;7.690;2022-08-20T10:01:34;0.70;;;0.70;;
16127;SDS011;8168;49.036;7.690;2022-08-20T10:04:05;1.08;;;0.70;;
16127;SDS011;8168;49.036;7.690;2022-08-20T10:06:40;0.80;;;0.80;;
16127;SDS011;8168;49.036;7.690;2022-08-20T10:09:11;1.35;;;0.80;;
16127;SDS011;8168;49.036;7.690;2022-08-20T10:11:42;0.80;;;0.80;;
16127;SDS011;8168;49.036;7.690;2022-08-20T10:14:12;1.53;;;1.07;;
16127;SDS011;8168;49.036;7.690;2022-08-20T10:16:43;0.90;;;0.80;;
16127;SDS011;8168;49.036;7.690;2022-08-20T10:19:13;0.70;;;0.70;;
16127;SDS011;8168;49.036;7.690;2022-08-20T10:21:44;1.02;;;1.00;;
16127;SDS011;8168;49.036;7.690;2022-08-20T10:24:15;0.77;;;0.77;;
16127;SDS011;8168;49.036;7.690;2022-08-20T10:26:45;0.80;;;0.80;;
16127;SDS011;8168;49.036;7.690;2022-08-20T10:29:16;1.00;;;0.83;;
16127;SDS011;8168;49.036;7.690;2022-08-20T10:31:47;0.80;;;0.80;;
16127;SDS011;8168;49.036;7.690;2022-08-20T10:34:18;0.85;;;0.77;;
16127;SDS011;8168;49.036;7.690;2022-08-20T10:36:48;3.63;;;0.77;;
16127;SDS011;8168;49.036;7.690;2022-08-20T10:39:19;0.68;;;0.68;;
16127;SDS011;8168;49.036;7.690;2022-08-20T10:41:50;0.68;;;0.68;;
16127;SDS011;8168;49.036;7.690;2022-08-20T10:44:20;0.60;;;0.60;;
16127;SDS011;8168;49.036;7.690;2022-08-20T10:46:51;2.63;;;0.98;;
16127;SDS011;8168;49.036;7.690;2022-08-20T10:49:22;1.30;;;0.60;;
16127;SDS011;8168;49.036;7.690;2022-08-20T10:51:52;0.60;;;0.60;;
16127;SDS011;8168;49.036;7.690;2022-08-20T10:54:23;1.63;;;0.55;;
16127;SDS011;8168;49.036;7.690;2022-08-20T10:56:53;1.23;;;0.90;;
16127;SDS011;8168;49.036;7.690;2022-08-20T10:59:24;0.70;;;0.70;;
16127;SDS011;8168;49.036;7.690;2022-08-20T11:01:55;0.70;;;0.70;;
16127;SDS011;8168;49.036;7.690;2022-08-20T11:04:25;0.75;;;0.70;;
16127;SDS011;8168;49.036;7.690;2022-08-20T11:06:56;1.15;;;0.77;;
16127;SDS011;8168;49.036;7.690;2022-08-20T11:09:27;0.68;;;0.68;;
16127;SDS011;8168;49.036;7.690;2022-08-20T11:11:58;2.88;;;0.95;;
16127;SDS011;8168;49.036;7.690;2022-08-20T11:14:28;0.63;;;0.63;;
16127;SDS011;8168;49.036;7.690;2022-08-20T11:16:59;0.57;;;0.57;;
16127;SDS011;8168;49.036;7.690;2022-08-20T11:19:31;1.30;;;0.70;;
16127;SDS011;8168;49.036;7.690;2022-08-20T11:22:02;2.17;;;0.70;;
16127;SDS011;8168;49.036;7.690;2022-08-20T11:24:33;1.63;;;0.70;;
16127;SDS011;8168;49.036;7.690;2022-08-20T11:27:04;0.60;;;0.60;;
16127;SDS011;8168;49.036;7.690;2022-08-20T11:29:36;0.40;;;0.40;;
16127;SDS011;8168;49.036;7.690;2022-08-20T11:32:08;1.08;;;0.60;;
16127;SDS011;8168;49.036;7.690;2022-08-20T11:34:38;0.68;;;0.68;;
16127;SDS011;8168;49.036;7.690;2022-08-20T11:37:09;0.90;;;0.90;;
16127;SDS011;8168;49.036;7.690;2022-08-20T11:39:42;2.47;;;0.60;;
16127;SDS011;8168;49.036;7.690;2022-08-20T11:42:13;0.43;;;0.43;;
16127;SDS011;8168;49.036;7.690;2022-08-20T11:44:44;1.23;;;0.75;;
16127;SDS011;8168;49.036;7.690;2022-08-20T11:47:24;0.75;;;0.63;;
16127;SDS011;8168;49.036;7.690;2022-08-20T11:50:02;0.50;;;0.50;;
16127;SDS011;8168;49.036;7.690;2022-08-20T11:52:38;0.65;;;0.65;;
16127;SDS011;8168;49.036;7.690;2022-08-20T11:55:10;0.90;;;0.90;;
16127;SDS011;8168;49.036;7.690;2022-08-20T11:57:44;1.42;;;0.70;;
16127;SDS011;8168;49.036;7.690;2022-08-20T12:00:18;1.80;;;0.90;;
16127;SDS011;8168;49.036;7.690;2022-08-20T12:02:50;1.02;;;1.00;;
16127;SDS011;8168;49.036;7.690;2022-08-20T12:05:21;1.30;;;1.20;;
16127;SDS011;8168;49.036;7.690;2022-08-20T12:07:52;1.33;;;1.00;;
16127;SDS011;8168;49.036;7.690;2022-08-20T12:10:22;0.82;;;0.73;;
16127;SDS011;8168;49.036;7.690;2022-08-20T12:12:55;0.98;;;0.70;;
16127;SDS011;8168;49.036;7.690;2022-08-20T12:15:26;0.90;;;0.90;;
16127;SDS011;8168;49.036;7.690;2022-08-20T12:17:57;1.70;;;1.10;;
16127;SDS011;8168;49.036;7.690;2022-08-20T12:20:28;0.73;;;0.73;;
16127;SDS011;8168;49.036;7.690;2022-08-20T12:22:58;0.90;;;0.90;;
16127;SDS011;8168;49.036;7.690;2022-08-20T12:25:29;1.45;;;1.15;;
16127;SDS011;8168;49.036;7.690;2022-08-20T12:28:00;1.42;;;1.15;;
16127;SDS011;8168;49.036;7.690;2022-08-20T12:30:31;1.80;;;1.20;;
16127;SDS011;8168;49.036;7.690;2022-08-20T12:33:02;1.63;;;1.15;;
16127;SDS011;8168;49.036;7.690;2022-08-20T12:35:33;1.10;;;1.00;;
16127;SDS011;8168;49.036;7.690;2022-08-20T12:38:05;1.33;;;1.00;;
16127;SDS011;8168;49.036;7.690;2022-08-20T12:40:36;2.60;;;1.20;;
16127;SDS011;8168;49.036;7.690;2022-08-20T12:43:07;1.40;;;1.10;;
16127;SDS011;8168;49.036;7.690;2022-08-20T12:45:37;2.45;;;1.38;;
16127;SDS011;8168;49.036;7.690;2022-08-20T12:48:10;3.05;;;1.27;;
16127;SDS011;8168;49.036;7.690;2022-08-20T12:50:42;2.10;;;1.13;;
16127;SDS011;8168;49.036;7.690;2022-08-20T12:53:14;2.67;;;1.38;;
16127;SDS011;8168;49.036;7.690;2022-08-20T12:55:48;3.50;;;1.50;;
16127;SDS011;8168;49.036;7.690;2022-08-20T12:58:18;2.30;;;1.15;;
16127;SDS011;8168;49.036;7.690;2022-08-20T13:00:49;2.22;;;1.10;;
16127;SDS011;8168;49.036;7.690;2022-08-20T13:03:20;1.70;;;1.50;;
16127;SDS011;8168;49.036;7.690;2022-08-20T13:05:50;2.70;;;1.70;;
16127;SDS011;8168;49.036;7.690;2022-08-20T13:08:21;3.15;;;1.35;;
16127;SDS011;8168;49.036;7.690;2022-08-20T13:10:51;2.20;;;1.13;;
16127;SDS011;8168;49.036;7.690;2022-08-20T13:13:22;2.83;;;1.40;;
16127;SDS011;8168;49.036;7.690;2022-08-20T13:15:53;1.45;;;1.35;;
16127;SDS011;8168;49.036;7.690;2022-08-20T13:18:23;1.70;;;1.30;;
16127;SDS011;8168;49.036;7.690;2022-08-20T13:20:54;2.05;;;1.35;;
16127;SDS011;8168;49.036;7.690;2022-08-20T13:23:24;3.35;;;1.50;;
16127;SDS011;8168;49.036;7.690;2022-08-20T13:25:55;3.28;;;1.30;;
16127;SDS011;8168;49.036;7.690;2022-08-20T13:28:26;3.15;;;1.50;;
16127;SDS011;8168;49.036;7.690;2022-08-20T13:30:56;3.78;;;1.48;;
16127;SDS011;8168;49.036;7.690;2022-08-20T13:33:27;2.33;;;1.77;;
16127;SDS011;8168;49.036;7.690;2022-08-20T13:35:58;1.90;;;1.30;;
16127;SDS011;8168;49.036;7.690;2022-08-20T13:38:29;2.22;;;1.42;;
16127;SDS011;8168;49.036;7.690;2022-08-20T13:41:00;1.33;;;1.23;;
16127;SDS011;8168;49.036;7.690;2022-08-20T13:43:30;4.18;;;1.60;;
16127;SDS011;8168;49.036;7.690;2022-08-20T13:46:01;3.45;;;1.30;;
16127;SDS011;8168;49.036;7.690;2022-08-20T13:48:32;1.50;;;1.25;;
16127;SDS011;8168;49.036;7.690;2022-08-20T13:51:03;1.40;;;1.30;;
16127;SDS011;8168;49.036;7.690;2022-08-20T13:53:33;1.50;;;1.40;;
16127;SDS011;8168;49.036;7.690;2022-08-20T13:56:04;2.22;;;1.60;;
16127;SDS011;8168;49.036;7.690;2022-08-20T13:58:35;2.67;;;1.40;;
16127;SDS011;8168;49.036;7.690;2022-08-20T14:01:05;2.22;;;1.67;;
16127;SDS011;8168;49.036;7.690;2022-08-20T14:03:36;3.25;;;1.58;;
16127;SDS011;8168;49.036;7.690;2022-08-20T14:06:07;4.03;;;1.80;;
16127;SDS011;8168;49.036;7.690;2022-08-20T14:08:38;1.95;;;1.50;;
16127;SDS011;8168;49.036;7.690;2022-08-20T14:11:09;1.50;;;1.40;;
16127;SDS011;8168;49.036;7.690;2022-08-20T14:13:39;2.08;;;1.48;;
16127;SDS011;8168;49.036;7.690;2022-08-20T14:16:10;1.67;;;1.30;;
16127;SDS011;8168;49.036;7.690;2022-08-20T14:18:41;1.63;;;1.25;;
16127;SDS011;8168;49.036;7.690;2022-08-20T14:21:11;1.65;;;1.38;;
16127;SDS011;8168;49.036;7.690;2022-08-20T14:23:42;0.95;;;0.93;;
16127;SDS011;8168;49.036;7.690;2022-08-20T14:26:13;2.38;;;1.40;;
16127;SDS011;8168;49.036;7.690;2022-08-20T14:28:43;1.58;;;1.20;;
16127;SDS011;8168;49.036;7.690;2022-08-20T14:31:14;0.85;;;0.85;;
16127;SDS011;8168;49.036;7.690;2022-08-20T14:33:45;2.17;;;1.35;;
16127;SDS011;8168;49.036;7.690;2022-08-20T14:36:15;2.58;;;1.52;;
16127;SDS011;8168;49.036;7.690;2022-08-20T14:38:46;3.80;;;1.30;;
16127;SDS011;8168;49.036;7.690;2022-08-20T14:41:16;1.30;;;1.20;;
16127;SDS011;8168;49.036;7.690;2022-08-20T14:43:47;1.40;;;1.20;;
16127;SDS011;8168;49.036;7.690;2022-08-20T14:46:17;2.17;;;1.50;;
16127;SDS011;8168;49.036;7.690;2022-08-20T14:48:48;2.28;;;1.35;;
16127;SDS011;8168;49.036;7.690;2022-08-20T14:51:19;2.95;;;1.27;;
16127;SDS011;8168;49.036;7.690;2022-08-20T14:53:49;1.75;;;1.10;;
16127;SDS011;8168;49.036;7.690;2022-08-20T14:56:20;1.20;;;1.10;;
16127;SDS011;8168;49.036;7.690;2022-08-20T14:58:50;2.58;;;1.30;;
16127;SDS011;8168;49.036;7.690;2022-08-20T15:01:21;2.30;;;1.10;;
16127;SDS011;8168;49.036;7.690;2022-08-20T15:03:52;0.95;;;0.95;;
16127;SDS011;8168;49.036;7.690;2022-08-20T15:06:22;1.77;;;1.20;;
16127;SDS011;8168;49.036;7.690;2022-08-20T15:08:53;1.88;;;1.10;;
16127;SDS011;8168;49.036;7.690;2022-08-20T15:11:23;1.20;;;1.10;;
16127;SDS011;8168;49.036;7.690;2022-08-20T15:13:54;1.33;;;1.13;;
16127;SDS011;8168;49.036;7.690;2022-08-20T15:16:25;2.25;;;1.10;;
16127;SDS011;8168;49.036;7.690;2022-08-20T15:18:55;3.15;;;1.10;;
16127;SDS011;8168;49.036;7.690;2022-08-20T15:21:26;1.92;;;1.10;;
16127;SDS011;8168;49.036;7.690;2022-08-20T15:23:57;1.77;;;1.00;;
16127;SDS011;8168;49.036;7.690;2022-08-20T15:26:27;2.75;;;1.02;;
16127;SDS011;8168;49.036;7.690;2022-08-20T15:28:58;2.88;;;1.27;;
16127;SDS011;8168;49.036;7.690;2022-08-20T15:31:29;1.27;;;0.85;;
16127;SDS011;8168;49.036;7.690;2022-08-20T15:33:59;1.55;;;1.02;;
16127;SDS011;8168;49.036;7.690;2022-08-20T15:36:30;1.70;;;1.08;;
16127;SDS011;8168;49.036;7.690;2022-08-20T15:39:01;1.45;;;1.10;;